createdAt,value
2023-07-27T00:00:24.238Z,18.57
2023-07-27T00:02:04.085Z,18.54
2023-07-27T00:03:43.809Z,18.53
2023-07-27T00:05:23.498Z,18.51
2023-07-27T00:07:03.320Z,18.49
2023-07-27T00:08:43.141Z,18.46
2023-07-27T00:10:22.876Z,18.44
2023-07-27T00:12:02.656Z,18.43
2023-07-27T00:13:42.399Z,18.42
2023-07-27T00:15:22.079Z,18.42
2023-07-27T00:17:01.671Z,18.37
2023-07-27T00:18:41.423Z,18.36
2023-07-27T00:20:21.285Z,18.35
2023-07-27T00:22:01.117Z,18.35
2023-07-27T00:23:40.962Z,18.29
2023-07-27T00:25:20.592Z,18.29
2023-07-27T00:27:00.261Z,18.29
2023-07-27T00:28:40.268Z,18.26
2023-07-27T00:30:19.797Z,18.26
2023-07-27T00:31:59.816Z,18.21
2023-07-27T00:33:39.524Z,18.21
2023-07-27T00:35:19.272Z,18.19
2023-07-27T00:36:59.080Z,18.19
2023-07-27T00:38:38.847Z,18.18
2023-07-27T00:40:18.599Z,18.14
2023-07-27T00:41:58.417Z,18.12
2023-07-27T00:43:38.012Z,18.11
2023-07-27T00:45:17.702Z,18.08
2023-07-27T00:46:57.792Z,18.08
2023-07-27T00:48:37.244Z,18.07
2023-07-27T00:50:17.048Z,18.04
2023-07-27T00:51:56.817Z,18.01
2023-07-27T00:53:36.710Z,18.02
2023-07-27T00:55:16.309Z,18.01
2023-07-27T00:56:56.206Z,17.96
2023-07-27T00:58:35.904Z,17.94
2023-07-27T01:00:15.647Z,17.94
2023-07-27T01:01:55.383Z,17.94
2023-07-27T01:03:35.158Z,17.92
2023-07-27T01:05:14.919Z,17.9
2023-07-27T01:06:54.930Z,17.87
2023-07-27T01:08:34.446Z,17.85
2023-07-27T01:10:14.348Z,17.83
2023-07-27T01:11:53.982Z,17.83
2023-07-27T01:13:33.742Z,17.82
2023-07-27T01:15:13.516Z,17.79
2023-07-27T01:16:53.273Z,17.79
2023-07-27T01:18:33.054Z,17.77
2023-07-27T01:20:12.818Z,17.74
2023-07-27T01:21:52.575Z,17.74
2023-07-27T01:23:32.376Z,17.73
2023-07-27T01:25:12.166Z,17.69
2023-07-27T01:26:52.200Z,17.67
2023-07-27T01:28:31.672Z,17.66
2023-07-27T01:30:11.433Z,17.67
2023-07-27T01:31:51.191Z,17.62
2023-07-27T01:33:31.102Z,17.61
2023-07-27T01:35:10.732Z,17.59
2023-07-27T01:36:50.512Z,17.6
2023-07-27T01:38:30.276Z,17.59
2023-07-27T01:40:10.063Z,17.56
2023-07-27T01:41:49.831Z,17.54
2023-07-27T01:43:29.568Z,17.52
2023-07-27T01:45:09.337Z,17.48
2023-07-27T01:46:49.178Z,17.48
2023-07-27T01:48:28.889Z,17.48
2023-07-27T01:50:08.668Z,17.45
2023-07-27T01:51:48.421Z,17.45
2023-07-27T01:53:28.232Z,17.44
2023-07-27T01:55:07.997Z,17.42
2023-07-27T01:56:47.826Z,17.39
2023-07-27T01:58:27.536Z,17.39
2023-07-27T02:00:07.233Z,17.35
2023-07-27T02:01:47.015Z,17.33
2023-07-27T02:03:26.789Z,17.32
2023-07-27T02:05:06.549Z,17.32
2023-07-27T02:06:46.340Z,17.29
2023-07-27T02:08:26.127Z,17.27
2023-07-27T02:10:05.910Z,17.26
2023-07-27T02:11:45.744Z,17.24
2023-07-27T02:13:25.385Z,17.23
2023-07-27T02:15:05.229Z,17.21
2023-07-27T02:16:45.166Z,17.21
2023-07-27T02:18:24.766Z,17.18
2023-07-27T02:20:04.573Z,17.16
2023-07-27T02:21:44.378Z,17.14
2023-07-27T02:23:24.092Z,17.16
2023-07-27T02:25:03.745Z,17.12
2023-07-27T02:26:43.526Z,17.09
2023-07-27T02:28:23.365Z,17.1
2023-07-27T02:30:03.062Z,17.07
2023-07-27T02:31:42.838Z,17.06
2023-07-27T02:33:22.599Z,17.04
2023-07-27T02:35:02.368Z,17.01
2023-07-27T02:36:42.402Z,17.01
2023-07-27T02:38:21.961Z,16.99
2023-07-27T02:40:01.664Z,16.95
2023-07-27T02:41:41.434Z,16.96
2023-07-27T02:43:21.200Z,16.95
2023-07-27T02:45:00.959Z,16.94
2023-07-27T02:46:40.994Z,16.9
2023-07-27T02:48:20.512Z,16.89
2023-07-27T02:50:00.311Z,16.87
2023-07-27T02:51:40.037Z,16.86
2023-07-27T02:53:19.794Z,16.83
2023-07-27T02:54:59.599Z,16.79
2023-07-27T02:56:39.328Z,16.81
2023-07-27T02:58:19.113Z,16.77
2023-07-27T02:59:58.908Z,16.79
2023-07-27T03:01:38.715Z,16.79
2023-07-27T03:03:18.448Z,16.81
2023-07-27T03:04:58.213Z,16.82
2023-07-27T03:06:38.224Z,16.81
2023-07-27T03:08:17.723Z,16.83
2023-07-27T03:09:57.503Z,16.81
2023-07-27T03:11:37.293Z,16.85
2023-07-27T03:13:17.022Z,16.82
2023-07-27T03:14:56.967Z,16.85
2023-07-27T03:16:36.794Z,16.85
2023-07-27T03:18:16.316Z,16.84
2023-07-27T03:19:56.081Z,16.84
2023-07-27T03:21:35.918Z,16.83
2023-07-27T03:23:15.693Z,16.83
2023-07-27T03:24:55.379Z,16.83
2023-07-27T03:26:35.418Z,16.84
2023-07-27T03:28:15.009Z,16.87
2023-07-27T03:29:54.785Z,16.85
2023-07-27T03:31:34.460Z,16.83
2023-07-27T03:33:14.237Z,16.84
2023-07-27T03:34:53.993Z,16.83
2023-07-27T03:36:33.752Z,16.84
2023-07-27T03:38:13.615Z,16.84
2023-07-27T03:39:53.394Z,16.82
2023-07-27T03:41:33.071Z,16.82
2023-07-27T03:43:12.834Z,16.84
2023-07-27T03:44:52.613Z,16.83
2023-07-27T03:46:32.664Z,16.83
2023-07-27T03:48:12.174Z,16.82
2023-07-27T03:49:51.971Z,16.81
2023-07-27T03:51:31.731Z,16.81
2023-07-27T03:53:11.461Z,16.79
2023-07-27T03:54:51.218Z,16.79
2023-07-27T03:56:30.987Z,16.78
2023-07-27T03:58:10.816Z,16.79
2023-07-27T03:59:50.554Z,16.79
2023-07-27T04:01:30.383Z,16.77
2023-07-27T04:03:10.072Z,16.75
2023-07-27T04:04:49.829Z,16.76
2023-07-27T04:06:29.864Z,16.75
2023-07-27T04:08:09.397Z,16.76
2023-07-27T04:09:49.209Z,16.76
2023-07-27T04:11:28.992Z,16.71
2023-07-27T04:13:08.794Z,16.76
2023-07-27T04:14:48.566Z,16.71
2023-07-27T04:16:28.410Z,16.73
2023-07-27T04:18:08.015Z,16.71
2023-07-27T04:19:47.769Z,16.71
2023-07-27T04:21:27.542Z,16.7
2023-07-27T04:23:07.314Z,16.7
2023-07-27T04:24:47.083Z,16.7
2023-07-27T04:26:27.117Z,16.68
2023-07-27T04:28:06.783Z,16.68
2023-07-27T04:33:05.939Z,16.7
2023-07-27T04:36:25.714Z,16.68
2023-07-27T04:41:24.797Z,16.68
2023-07-27T04:42:07.021Z,16.7
2023-07-27T04:42:07.044Z,16.68
2023-07-27T04:42:07.058Z,16.69
2023-07-27T04:42:07.091Z,16.7
2023-07-27T04:42:07.113Z,16.66
2023-07-27T04:43:04.551Z,16.66
2023-07-27T04:44:44.369Z,16.67
2023-07-27T04:49:43.869Z,16.68
2023-07-27T04:51:23.406Z,16.67
2023-07-27T04:53:03.301Z,16.71
2023-07-27T04:54:42.940Z,16.7
2023-07-27T04:56:23.023Z,16.71
2023-07-27T04:58:02.583Z,16.73
2023-07-27T04:59:42.305Z,16.71
2023-07-27T05:01:22.104Z,16.77
2023-07-27T05:03:01.894Z,16.84
2023-07-27T05:04:41.618Z,16.87
2023-07-27T05:06:21.577Z,16.93
2023-07-27T05:08:01.254Z,17.01
2023-07-27T05:09:40.918Z,17.07
2023-07-27T05:11:20.787Z,17.1
2023-07-27T05:13:00.432Z,17.19
2023-07-27T05:14:40.194Z,17.26
2023-07-27T05:16:20.218Z,17.34
2023-07-27T05:17:59.778Z,17.39
2023-07-27T05:19:39.732Z,17.44
2023-07-27T05:21:19.310Z,17.48
2023-07-27T05:22:59.168Z,17.57
2023-07-27T05:24:38.826Z,17.56
2023-07-27T05:26:18.771Z,17.61
2023-07-27T05:27:58.358Z,17.67
2023-07-27T05:29:38.182Z,17.68
2023-07-27T05:31:17.899Z,17.73
2023-07-27T05:32:57.671Z,17.77
2023-07-27T05:34:37.551Z,17.79
2023-07-27T05:36:17.278Z,17.84
2023-07-27T05:37:56.977Z,17.9
2023-07-27T05:39:36.751Z,17.93
2023-07-27T05:41:16.550Z,17.95
2023-07-27T05:42:56.278Z,18.01
2023-07-27T05:44:36.054Z,18.02
2023-07-27T05:46:15.941Z,18.07
2023-07-27T05:47:55.606Z,18.12
2023-07-27T05:49:35.414Z,18.18
2023-07-27T05:51:15.176Z,18.18
2023-07-27T05:52:54.924Z,18.26
2023-07-27T05:54:34.790Z,18.27
2023-07-27T05:56:14.454Z,18.33
2023-07-27T05:57:54.532Z,18.34
2023-07-27T05:59:34.016Z,18.4
2023-07-27T06:01:13.966Z,18.45
2023-07-27T06:02:53.932Z,18.49
2023-07-27T06:04:33.645Z,18.53
2023-07-27T06:06:13.234Z,18.6
2023-07-27T06:07:53.047Z,18.67
2023-07-27T06:09:32.813Z,18.7
2023-07-27T06:11:12.592Z,18.75
2023-07-27T06:12:52.352Z,18.76
2023-07-27T06:14:32.142Z,18.82
2023-07-27T06:16:11.907Z,18.87
2023-07-27T06:17:51.786Z,18.9
2023-07-27T06:19:31.242Z,18.96
2023-07-27T06:21:11.226Z,18.98
2023-07-27T06:22:51.034Z,19.04
2023-07-27T06:24:30.663Z,19.09
2023-07-27T06:26:10.317Z,19.12
2023-07-27T06:27:50.127Z,19.14
2023-07-27T06:29:29.924Z,19.18
2023-07-27T06:31:09.873Z,19.25
2023-07-27T06:32:49.548Z,19.28
2023-07-27T06:34:29.494Z,19.31
2023-07-27T06:36:09.128Z,19.36
2023-07-27T06:37:48.903Z,19.37
2023-07-27T06:39:28.620Z,19.41
2023-07-27T06:41:08.396Z,19.45
2023-07-27T06:42:48.121Z,19.5
2023-07-27T06:44:27.952Z,19.54
2023-07-27T06:46:07.655Z,19.54
2023-07-27T06:47:47.470Z,19.58
2023-07-27T06:49:27.116Z,19.62
2023-07-27T06:51:07.064Z,19.62
2023-07-27T06:52:46.759Z,19.67
2023-07-27T06:54:26.543Z,19.7
2023-07-27T06:56:06.260Z,19.73
2023-07-27T06:57:46.168Z,19.79
2023-07-27T06:59:25.799Z,19.79
2023-07-27T07:01:05.548Z,19.84
2023-07-27T07:02:45.412Z,19.86
2023-07-27T07:04:25.104Z,19.9
2023-07-27T07:06:05.056Z,19.93
2023-07-27T07:07:44.781Z,19.93
2023-07-27T07:09:24.478Z,20
2023-07-27T07:11:04.128Z,20.01
2023-07-27T07:12:43.917Z,20.04
2023-07-27T07:14:23.858Z,20.07
2023-07-27T07:16:03.451Z,20.1
2023-07-27T07:17:43.315Z,20.1
2023-07-27T07:19:22.958Z,20.12
2023-07-27T07:21:02.849Z,20.18
2023-07-27T07:22:42.668Z,20.19
2023-07-27T07:24:22.523Z,20.21
2023-07-27T07:26:02.215Z,20.27
2023-07-27T07:27:41.973Z,20.28
2023-07-27T07:29:21.822Z,20.31
2023-07-27T07:31:01.512Z,20.31
2023-07-27T07:32:41.240Z,20.34
2023-07-27T07:34:20.917Z,20.41
2023-07-27T07:36:00.733Z,20.43
2023-07-27T07:37:40.473Z,20.44
2023-07-27T07:39:20.453Z,20.46
2023-07-27T07:41:00.182Z,20.5
2023-07-27T07:42:39.914Z,20.54
2023-07-27T07:44:19.739Z,20.59
2023-07-27T07:45:59.392Z,20.59
2023-07-27T07:47:39.255Z,20.63
2023-07-27T07:49:18.840Z,20.67
2023-07-27T07:50:58.609Z,20.7
2023-07-27T07:52:38.445Z,20.71
2023-07-27T07:54:18.337Z,20.73
2023-07-27T07:55:57.985Z,20.77
2023-07-27T07:57:37.827Z,20.81
2023-07-27T07:59:17.647Z,20.84
2023-07-27T08:00:57.432Z,20.84
2023-07-27T08:02:37.257Z,20.88
2023-07-27T08:04:16.962Z,20.92
2023-07-27T08:05:56.685Z,20.94
2023-07-27T08:07:36.612Z,20.93
2023-07-27T08:09:16.364Z,20.99
2023-07-27T08:10:56.125Z,21
2023-07-27T08:12:35.780Z,21.02
2023-07-27T08:14:15.697Z,20.99
2023-07-27T08:15:55.384Z,20.99
2023-07-27T08:17:35.172Z,21
2023-07-27T08:19:14.955Z,20.98
2023-07-27T08:20:54.594Z,20.96
2023-07-27T08:22:34.531Z,20.97
2023-07-27T08:24:13.997Z,20.93
2023-07-27T08:25:53.770Z,20.98
2023-07-27T08:27:33.630Z,21
2023-07-27T08:29:13.458Z,21.06
2023-07-27T08:30:53.084Z,21.11
2023-07-27T08:32:32.895Z,21.16
2023-07-27T08:34:12.708Z,21.19
2023-07-27T08:35:52.497Z,21.21
2023-07-27T08:37:32.250Z,21.22
2023-07-27T08:39:11.953Z,21.25
2023-07-27T08:40:51.718Z,21.26
2023-07-27T08:42:31.481Z,21.28
2023-07-27T08:44:11.511Z,21.25
2023-07-27T08:45:51.318Z,21.28
2023-07-27T08:47:31.022Z,21.32
2023-07-27T08:49:10.565Z,21.3
2023-07-27T08:50:50.344Z,21.29
2023-07-27T08:52:30.318Z,21.33
2023-07-27T08:54:09.874Z,21.3
2023-07-27T08:55:49.642Z,21.35
2023-07-27T08:57:29.428Z,21.35
2023-07-27T08:59:09.244Z,21.35
2023-07-27T09:00:48.954Z,21.35
2023-07-27T09:02:28.721Z,21.36
2023-07-27T09:04:08.583Z,21.38
2023-07-27T09:05:48.380Z,21.38
2023-07-27T09:07:28.204Z,21.38
2023-07-27T09:09:07.802Z,21.4
2023-07-27T09:10:47.593Z,21.4
2023-07-27T09:12:27.379Z,21.4
2023-07-27T09:14:07.265Z,21.39
2023-07-27T09:15:46.917Z,21.4
2023-07-27T09:17:26.646Z,21.4
2023-07-27T09:19:06.431Z,21.41
2023-07-27T09:20:46.191Z,21.42
2023-07-27T09:22:25.986Z,21.45
2023-07-27T09:24:05.747Z,21.45
2023-07-27T09:25:45.515Z,21.48
2023-07-27T09:27:25.284Z,21.46
2023-07-27T09:29:05.052Z,21.48
2023-07-27T09:30:44.833Z,21.47
2023-07-27T09:32:24.602Z,21.49
2023-07-27T09:34:04.402Z,21.5
2023-07-27T09:35:44.141Z,21.5
2023-07-27T09:37:24.178Z,21.49
2023-07-27T09:39:03.910Z,21.51
2023-07-27T09:40:43.550Z,21.52
2023-07-27T09:42:23.376Z,21.54
2023-07-27T09:44:02.989Z,21.55
2023-07-27T09:45:42.761Z,21.54
2023-07-27T09:47:22.542Z,21.56
2023-07-27T09:49:02.297Z,21.54
2023-07-27T09:50:42.092Z,21.56
2023-07-27T09:52:22.203Z,21.58
2023-07-27T09:54:01.793Z,21.59
2023-07-27T09:55:41.577Z,21.6
2023-07-27T09:57:21.168Z,21.59
2023-07-27T09:59:01.206Z,21.58
2023-07-27T10:00:40.794Z,21.6
2023-07-27T10:02:20.559Z,21.63
2023-07-27T10:04:00.228Z,21.61
2023-07-27T10:05:39.994Z,21.63
2023-07-27T10:07:19.786Z,21.64
2023-07-27T10:08:59.540Z,21.68
2023-07-27T10:10:39.328Z,21.68
2023-07-27T10:12:19.094Z,21.67
2023-07-27T10:13:58.861Z,21.7
2023-07-27T10:15:38.798Z,21.69
2023-07-27T10:17:18.642Z,21.73
2023-07-27T10:18:58.208Z,21.74
2023-07-27T10:20:38.054Z,21.77
2023-07-27T10:22:17.899Z,21.77
2023-07-27T10:23:57.649Z,21.77
2023-07-27T10:25:37.260Z,21.8
2023-07-27T10:27:17.019Z,21.8
2023-07-27T10:28:56.795Z,21.81
2023-07-27T10:30:36.563Z,21.85
2023-07-27T10:32:16.331Z,21.87
2023-07-27T10:33:56.099Z,21.89
2023-07-27T10:35:35.869Z,21.87
2023-07-27T10:37:15.654Z,21.91
2023-07-27T10:38:55.414Z,21.94
2023-07-27T10:40:35.178Z,21.93
2023-07-27T10:42:14.954Z,21.96
2023-07-27T10:43:54.727Z,21.97
2023-07-27T10:45:34.503Z,21.99
2023-07-27T10:47:14.287Z,22.01
2023-07-27T10:48:54.040Z,22.04
2023-07-27T10:50:33.817Z,22.05
2023-07-27T10:52:13.574Z,22.08
2023-07-27T10:53:53.351Z,22.08
2023-07-27T10:55:33.123Z,22.1
2023-07-27T10:57:12.896Z,22.13
2023-07-27T10:58:52.662Z,22.15
2023-07-27T11:00:32.451Z,22.18
2023-07-27T11:02:12.200Z,22.18
2023-07-27T11:03:51.989Z,22.23
2023-07-27T11:05:31.756Z,22.25
2023-07-27T11:07:11.563Z,22.26
2023-07-27T11:08:51.298Z,22.29
2023-07-27T11:10:31.067Z,22.29
2023-07-27T11:12:10.825Z,22.33
2023-07-27T11:13:50.599Z,22.32
2023-07-27T11:15:30.366Z,22.35
2023-07-27T11:17:10.136Z,22.38
2023-07-27T11:18:49.918Z,22.42
2023-07-27T11:20:29.674Z,22.42
2023-07-27T11:22:09.463Z,22.43
2023-07-27T11:23:49.214Z,22.44
2023-07-27T11:25:28.999Z,22.46
2023-07-27T11:27:08.770Z,22.49
2023-07-27T11:28:48.531Z,22.5
2023-07-27T11:30:28.313Z,22.53
2023-07-27T11:32:08.098Z,22.55
2023-07-27T11:33:47.843Z,22.56
2023-07-27T11:35:27.646Z,22.56
2023-07-27T11:37:07.392Z,22.59
2023-07-27T11:38:47.169Z,22.61
2023-07-27T11:40:26.937Z,22.65
2023-07-27T11:42:06.695Z,22.65
2023-07-27T11:43:46.477Z,22.69
2023-07-27T11:45:26.252Z,22.69
2023-07-27T11:47:06.008Z,22.69
2023-07-27T11:48:45.776Z,22.71
2023-07-27T11:50:25.552Z,22.71
2023-07-27T11:52:05.336Z,22.74
2023-07-27T11:53:45.260Z,22.78
2023-07-27T11:55:25.080Z,22.78
2023-07-27T11:57:04.630Z,22.8
2023-07-27T11:58:44.566Z,22.8
2023-07-27T12:00:24.173Z,22.82
2023-07-27T12:02:04.001Z,22.84
2023-07-27T12:03:43.710Z,22.84
2023-07-27T12:05:23.490Z,22.86
2023-07-27T12:07:03.278Z,22.88
2023-07-27T12:08:43.030Z,22.9
2023-07-27T12:10:22.805Z,22.91
2023-07-27T12:12:02.559Z,22.91
2023-07-27T12:13:42.337Z,22.92
2023-07-27T12:15:22.105Z,22.92
2023-07-27T12:17:01.874Z,22.96
2023-07-27T12:18:41.644Z,22.96
2023-07-27T12:20:21.416Z,22.96
2023-07-27T12:22:01.197Z,22.99
2023-07-27T12:23:40.977Z,22.99
2023-07-27T12:25:20.876Z,23.02
2023-07-27T12:27:00.552Z,23.03
2023-07-27T12:28:40.270Z,23.04
2023-07-27T12:30:20.109Z,23.04
2023-07-27T12:31:59.937Z,23.06
2023-07-27T12:33:39.739Z,23.05
2023-07-27T12:35:19.380Z,23.08
2023-07-27T12:36:59.130Z,23.09
2023-07-27T12:38:38.916Z,23.1
2023-07-27T12:40:18.668Z,23.11
2023-07-27T12:41:58.458Z,23.14
2023-07-27T12:43:38.210Z,23.14
2023-07-27T12:45:17.989Z,23.13
2023-07-27T12:46:57.758Z,23.15
2023-07-27T12:48:37.512Z,23.17
2023-07-27T12:50:17.292Z,23.2
2023-07-27T12:51:57.055Z,23.17
2023-07-27T12:53:36.820Z,23.21
2023-07-27T12:55:16.608Z,23.2
2023-07-27T12:56:56.376Z,23.23
2023-07-27T12:58:36.130Z,23.23
2023-07-27T13:00:15.909Z,23.23
2023-07-27T13:01:55.675Z,23.21
2023-07-27T13:03:35.442Z,23.23
2023-07-27T13:05:15.212Z,23.26
2023-07-27T13:06:54.991Z,23.26
2023-07-27T13:08:34.765Z,23.27
2023-07-27T13:10:14.516Z,23.28
2023-07-27T13:11:54.304Z,23.26
2023-07-27T13:13:34.076Z,23.28
2023-07-27T13:15:13.833Z,23.3
2023-07-27T13:16:53.616Z,23.32
2023-07-27T13:18:33.379Z,23.32
2023-07-27T13:20:13.155Z,23.3
2023-07-27T13:21:52.923Z,23.32
2023-07-27T13:23:32.689Z,23.31
2023-07-27T13:25:12.479Z,23.33
2023-07-27T13:26:52.241Z,23.3
2023-07-27T13:28:32.003Z,23.36
2023-07-27T13:30:11.775Z,23.34
2023-07-27T13:31:51.553Z,23.35
2023-07-27T13:33:31.320Z,23.33
2023-07-27T13:35:11.079Z,23.35
2023-07-27T13:36:50.857Z,23.35
2023-07-27T13:38:30.615Z,23.31
2023-07-27T13:40:10.393Z,23.34
2023-07-27T13:41:50.168Z,23.36
2023-07-27T13:43:29.976Z,23.36
2023-07-27T13:45:09.715Z,23.36
2023-07-27T13:46:49.474Z,23.38
2023-07-27T13:48:29.245Z,23.33
2023-07-27T13:50:09.186Z,23.34
2023-07-27T13:51:48.801Z,23.35
2023-07-27T13:53:28.578Z,23.34
2023-07-27T13:55:08.466Z,23.36
2023-07-27T13:56:48.100Z,23.38
2023-07-27T13:58:28.006Z,23.36
2023-07-27T14:00:07.643Z,23.37
2023-07-27T14:01:47.456Z,23.36
2023-07-27T14:03:27.190Z,23.38
2023-07-27T14:05:06.947Z,23.38
2023-07-27T14:06:46.769Z,23.35
2023-07-27T14:08:26.487Z,23.38
2023-07-27T14:10:06.256Z,23.37
2023-07-27T14:11:46.101Z,23.37
2023-07-27T14:13:25.859Z,23.35
2023-07-27T14:15:05.650Z,23.37
2023-07-27T14:16:45.353Z,23.32
2023-07-27T14:18:25.112Z,23.32
2023-07-27T14:20:04.883Z,23.32
2023-07-27T14:21:44.671Z,23.29
2023-07-27T14:23:24.432Z,23.3
2023-07-27T14:25:04.216Z,23.28
2023-07-27T14:26:43.982Z,23.3
2023-07-27T14:28:23.765Z,23.29
2023-07-27T14:30:03.524Z,23.3
2023-07-27T14:31:43.395Z,23.32
2023-07-27T14:33:23.063Z,23.31
2023-07-27T14:35:02.845Z,23.31
2023-07-27T14:36:42.607Z,23.33
2023-07-27T14:38:22.360Z,23.32
2023-07-27T14:40:02.131Z,23.31
2023-07-27T14:41:41.898Z,23.31
2023-07-27T14:43:21.668Z,23.32
2023-07-27T14:45:01.460Z,23.32
2023-07-27T14:46:41.213Z,23.32
2023-07-27T14:48:20.973Z,23.3
2023-07-27T14:50:00.803Z,23.34
2023-07-27T14:51:40.556Z,23.32
2023-07-27T14:53:20.320Z,23.32
2023-07-27T14:55:00.059Z,23.33
2023-07-27T14:56:39.935Z,23.36
2023-07-27T14:58:19.611Z,23.35
2023-07-27T14:59:59.390Z,23.35
2023-07-27T15:01:39.172Z,23.34
2023-07-27T15:03:18.911Z,23.32
2023-07-27T15:04:58.694Z,23.34
2023-07-27T15:06:38.459Z,23.35
2023-07-27T15:08:18.241Z,23.34
2023-07-27T15:09:58.003Z,23.3
2023-07-27T15:11:37.773Z,23.33
2023-07-27T15:13:17.545Z,23.31
2023-07-27T15:14:57.313Z,23.3
2023-07-27T15:16:37.077Z,23.31
2023-07-27T15:18:16.860Z,23.32
2023-07-27T15:19:56.628Z,23.3
2023-07-27T15:21:36.473Z,23.29
2023-07-27T15:23:16.195Z,23.31
2023-07-27T15:24:55.939Z,23.32
2023-07-27T15:26:35.714Z,23.3
2023-07-27T15:28:15.481Z,23.31
2023-07-27T15:29:55.247Z,23.31
2023-07-27T15:31:35.016Z,23.29
2023-07-27T15:33:14.805Z,23.3
2023-07-27T15:34:54.555Z,23.3
2023-07-27T15:36:34.323Z,23.3
2023-07-27T15:38:14.102Z,23.3
2023-07-27T15:39:53.880Z,23.28
2023-07-27T15:41:33.641Z,23.28
2023-07-27T15:43:13.413Z,23.28
2023-07-27T15:44:53.179Z,23.29
2023-07-27T15:46:32.954Z,23.26
2023-07-27T15:48:12.721Z,23.27
2023-07-27T15:49:52.485Z,23.23
2023-07-27T15:51:32.261Z,23.24
2023-07-27T15:53:12.026Z,23.26
2023-07-27T15:54:51.792Z,23.23
2023-07-27T15:56:31.568Z,23.23
2023-07-27T15:58:11.338Z,23.22
2023-07-27T15:59:51.113Z,23.22
2023-07-27T16:01:30.887Z,23.21
2023-07-27T16:03:10.664Z,23.21
2023-07-27T16:04:50.427Z,23.19
2023-07-27T16:06:30.205Z,23.16
2023-07-27T16:08:09.971Z,23.15
2023-07-27T16:09:49.735Z,23.12
2023-07-27T16:11:29.505Z,23.12
2023-07-27T16:13:09.274Z,23.12
2023-07-27T16:14:49.053Z,23.1
2023-07-27T16:16:28.834Z,23.12
2023-07-27T16:18:08.584Z,23.09
2023-07-27T16:19:48.357Z,23.07
2023-07-27T16:21:28.121Z,23.04
2023-07-27T16:23:07.895Z,23
2023-07-27T16:24:47.663Z,23.03
2023-07-27T16:26:27.439Z,22.98
2023-07-27T16:28:07.210Z,22.96
2023-07-27T16:29:46.971Z,22.93
2023-07-27T16:31:26.754Z,22.94
2023-07-27T16:33:06.531Z,22.92
2023-07-27T16:34:46.296Z,22.87
2023-07-27T16:36:26.108Z,22.86
2023-07-27T16:38:05.833Z,22.83
2023-07-27T16:39:45.599Z,22.81
2023-07-27T16:41:25.382Z,22.77
2023-07-27T16:43:05.143Z,22.77
2023-07-27T16:44:44.908Z,22.74
2023-07-27T16:46:24.685Z,22.72
2023-07-27T16:48:04.599Z,22.68
2023-07-27T16:49:44.263Z,22.67
2023-07-27T16:51:24.053Z,22.63
2023-07-27T16:53:03.785Z,22.62
2023-07-27T16:54:43.523Z,22.61
2023-07-27T16:56:23.368Z,22.58
2023-07-27T16:58:03.302Z,22.56
2023-07-27T16:59:42.894Z,22.51
2023-07-27T17:01:22.628Z,22.5
2023-07-27T17:03:02.431Z,22.48
2023-07-27T17:04:42.250Z,22.45
2023-07-27T17:06:21.915Z,22.41
2023-07-27T17:08:01.735Z,22.42
2023-07-27T17:09:41.573Z,22.38
2023-07-27T17:11:21.256Z,22.36
2023-07-27T17:13:01.013Z,22.37
2023-07-27T17:14:40.804Z,22.32
2023-07-27T17:16:20.579Z,22.3
2023-07-27T17:18:00.326Z,22.29
2023-07-27T17:19:40.157Z,22.27
2023-07-27T17:21:19.952Z,22.23
2023-07-27T17:22:59.645Z,22.21
2023-07-27T17:24:39.441Z,22.21
2023-07-27T17:26:19.177Z,22.18
2023-07-27T17:27:58.951Z,22.15
2023-07-27T17:29:38.710Z,22.1
2023-07-27T17:31:18.643Z,22.08
2023-07-27T17:32:58.263Z,22.05
2023-07-27T17:34:38.031Z,22
2023-07-27T17:36:17.854Z,22
2023-07-27T17:37:57.545Z,21.98
2023-07-27T17:39:37.331Z,21.95
2023-07-27T17:41:17.095Z,21.93
2023-07-27T17:42:56.875Z,21.91
2023-07-27T17:44:36.650Z,21.91
2023-07-27T17:46:16.403Z,21.85
2023-07-27T17:47:56.174Z,21.85
2023-07-27T17:49:35.950Z,21.8
2023-07-27T17:51:15.755Z,21.78
2023-07-27T17:52:55.467Z,21.76
2023-07-27T17:54:35.252Z,21.73
2023-07-27T17:56:15.022Z,21.73
2023-07-27T17:57:54.783Z,21.71
2023-07-27T17:59:34.532Z,21.66
2023-07-27T18:01:14.325Z,21.63
2023-07-27T18:02:54.096Z,21.61
2023-07-27T18:04:33.856Z,21.61
2023-07-27T18:06:13.711Z,21.56
2023-07-27T18:07:53.412Z,21.55
2023-07-27T18:09:33.182Z,21.53
2023-07-27T18:11:12.963Z,21.5
2023-07-27T18:12:52.705Z,21.49
2023-07-27T18:14:32.451Z,21.47
2023-07-27T18:16:12.240Z,21.43
2023-07-27T18:17:52.019Z,21.46
2023-07-27T18:19:31.774Z,21.42
2023-07-27T18:21:11.549Z,21.4
2023-07-27T18:22:51.320Z,21.37
2023-07-27T18:24:31.268Z,21.39
2023-07-27T18:26:10.858Z,21.37
2023-07-27T18:27:50.599Z,21.3
2023-07-27T18:29:30.516Z,21.31
2023-07-27T18:31:10.508Z,21.29
2023-07-27T18:32:50.207Z,21.27
2023-07-27T18:34:29.979Z,21.25
2023-07-27T18:36:09.594Z,21.24
2023-07-27T18:37:49.295Z,21.22
2023-07-27T18:39:29.145Z,21.17
2023-07-27T18:41:08.755Z,21.18
2023-07-27T18:42:48.718Z,21.15
2023-07-27T18:44:28.493Z,21.14
2023-07-27T18:46:08.205Z,21.12
2023-07-27T18:47:47.971Z,21.11
2023-07-27T18:49:27.763Z,21.11
2023-07-27T18:51:07.550Z,21.11
2023-07-27T18:52:47.198Z,21.05
2023-07-27T18:54:26.900Z,21.05
2023-07-27T18:56:06.753Z,21.01
2023-07-27T18:57:46.521Z,21.03
2023-07-27T19:01:06.123Z,20.96
2023-07-27T19:02:45.791Z,20.96
2023-07-27T19:04:25.503Z,20.96
2023-07-27T19:06:05.279Z,20.93
2023-07-27T19:07:45.132Z,20.91
2023-07-27T19:09:24.864Z,20.94
2023-07-27T19:11:04.562Z,20.91
2023-07-27T19:12:44.373Z,20.86
2023-07-27T19:14:24.137Z,20.88
2023-07-27T19:16:03.876Z,20.84
2023-07-27T19:17:43.716Z,20.86
2023-07-27T19:19:23.614Z,20.83
2023-07-27T19:21:03.241Z,20.78
2023-07-27T19:22:42.949Z,20.79
2023-07-27T19:24:22.732Z,20.72
2023-07-27T19:26:02.464Z,20.69
2023-07-27T19:27:42.265Z,20.65
2023-07-27T19:29:22.164Z,20.64
2023-07-27T19:31:01.976Z,20.59
2023-07-27T19:32:41.581Z,20.55
2023-07-27T19:34:21.342Z,20.55
2023-07-27T19:36:01.244Z,20.52
2023-07-27T19:37:40.864Z,20.49
2023-07-27T19:39:20.640Z,20.44
2023-07-27T19:41:00.378Z,20.41
2023-07-27T19:42:40.253Z,20.41
2023-07-27T19:44:19.925Z,20.37
2023-07-27T19:45:59.729Z,20.33
2023-07-27T19:47:39.524Z,20.32
2023-07-27T19:49:19.209Z,20.29
2023-07-27T19:50:59.199Z,20.26
2023-07-27T19:52:38.812Z,20.24
2023-07-27T19:54:18.577Z,20.23
2023-07-27T19:55:58.366Z,20.2
2023-07-27T19:57:38.100Z,20.17
2023-07-27T19:59:17.905Z,20.16
2023-07-27T20:00:57.597Z,20.14
2023-07-27T20:02:37.362Z,20.1
2023-07-27T20:04:17.179Z,20.1
2023-07-27T20:05:57.004Z,20.09
2023-07-27T20:07:36.794Z,20.04
2023-07-27T20:09:16.607Z,20.04
2023-07-27T20:10:56.212Z,20.01
2023-07-27T20:12:36.006Z,19.99
2023-07-27T20:14:15.724Z,19.96
2023-07-27T20:15:55.506Z,19.98
2023-07-27T20:17:35.255Z,19.94
2023-07-27T20:19:15.040Z,19.95
2023-07-27T20:20:54.813Z,19.94
2023-07-27T20:22:34.632Z,19.92
2023-07-27T20:24:14.323Z,19.87
2023-07-27T20:25:54.142Z,19.89
2023-07-27T20:27:33.989Z,19.86
2023-07-27T20:29:13.636Z,19.84
2023-07-27T20:30:53.429Z,19.83
2023-07-27T20:32:33.189Z,19.84
2023-07-27T20:34:12.966Z,19.82
2023-07-27T20:35:52.707Z,19.79
2023-07-27T20:37:32.536Z,19.78
2023-07-27T20:39:12.253Z,19.79
2023-07-27T20:40:52.005Z,19.75
2023-07-27T20:44:11.668Z,19.74
2023-07-27T20:45:51.311Z,19.74
2023-07-27T20:47:31.178Z,19.73
2023-07-27T20:49:10.864Z,19.7
2023-07-27T20:50:50.660Z,19.7
2023-07-27T20:52:30.392Z,19.68
2023-07-27T20:54:10.147Z,19.7
2023-07-27T20:55:49.982Z,19.67
2023-07-27T20:57:29.757Z,19.67
2023-07-27T20:59:09.734Z,19.66
2023-07-27T21:00:49.296Z,19.62
2023-07-27T21:02:28.991Z,19.66
2023-07-27T21:04:08.813Z,19.62
2023-07-27T21:05:48.531Z,19.61
2023-07-27T21:07:28.404Z,19.61
2023-07-27T21:09:08.058Z,19.61
2023-07-27T21:10:47.938Z,19.59
2023-07-27T21:12:27.600Z,19.6
2023-07-27T21:14:07.352Z,19.57
2023-07-27T21:15:47.142Z,19.56
2023-07-27T21:17:26.893Z,19.56
2023-07-27T21:20:46.735Z,19.56
2023-07-27T21:22:26.310Z,19.54
2023-07-27T21:24:06.120Z,19.56
2023-07-27T21:25:45.947Z,19.53
2023-07-27T21:27:25.716Z,19.53
2023-07-27T21:29:05.375Z,19.54
2023-07-27T21:30:45.121Z,19.52
2023-07-27T21:34:04.709Z,19.54
2023-07-27T21:35:44.410Z,19.52
2023-07-27T21:37:24.211Z,19.52
2023-07-27T21:39:04.149Z,19.48